createdAt,value
2017-05-27T00:00:51.596Z,0
2017-05-27T00:02:07.296Z,0
2017-05-27T00:03:21.468Z,0
2017-05-27T00:04:36.918Z,0
2017-05-27T00:05:52.568Z,0
2017-05-27T00:07:08.194Z,0
2017-05-27T00:08:22.414Z,0
2017-05-27T00:09:37.778Z,0
2017-05-27T00:10:53.221Z,0
2017-05-27T00:12:08.493Z,0
2017-05-27T00:13:22.765Z,0
2017-05-27T00:14:38.223Z,0
2017-05-27T00:15:53.596Z,0
2017-05-27T00:17:08.304Z,0
2017-05-27T00:18:23.354Z,0
2017-05-27T00:20:08.331Z,0
2017-05-27T00:21:23.733Z,0
2017-05-27T00:22:39.402Z,0
2017-05-27T00:23:54.909Z,0
2017-05-27T00:25:10.343Z,0
2017-05-27T00:26:25.808Z,0
2017-05-27T00:27:40.223Z,0
2017-05-27T00:28:55.279Z,0
2017-05-27T00:30:10.702Z,0
2017-05-27T00:31:26.167Z,0
2017-05-27T00:32:41.882Z,0
2017-05-27T00:33:56.004Z,0
2017-05-27T00:35:11.495Z,0
2017-05-27T00:36:26.972Z,0
2017-05-27T00:37:42.573Z,0
2017-05-27T00:38:58.052Z,0
2017-05-27T00:40:12.190Z,0
2017-05-27T00:41:27.678Z,0
2017-05-27T00:42:43.518Z,0
2017-05-27T00:43:57.611Z,0
2017-05-27T00:45:13.062Z,0
2017-05-27T00:46:28.750Z,0
2017-05-27T00:47:44.404Z,0
2017-05-27T00:48:59.898Z,0
2017-05-27T00:50:15.370Z,0
2017-05-27T00:51:30.767Z,0
2017-05-27T00:52:45.082Z,0
2017-05-27T00:54:00.551Z,0
2017-05-27T00:55:15.973Z,0
2017-05-27T00:56:31.195Z,0
2017-05-27T00:57:46.977Z,0
2017-05-27T00:59:02.404Z,0
2017-05-27T01:00:18.244Z,0
2017-05-27T01:01:33.844Z,0
2017-05-27T01:02:49.128Z,0
2017-05-27T01:04:04.540Z,0
2017-05-27T01:05:18.680Z,0
2017-05-27T01:06:34.084Z,0
2017-05-27T01:07:48.483Z,0
2017-05-27T01:09:03.854Z,0
2017-05-27T01:10:18.156Z,0
2017-05-27T01:11:33.604Z,0
2017-05-27T01:12:49.299Z,0
2017-05-27T01:14:04.761Z,0
2017-05-27T01:15:20.181Z,0
2017-05-27T01:16:35.588Z,0
2017-05-27T01:17:51.312Z,0
2017-05-27T01:19:06.702Z,0
2017-05-27T01:20:22.066Z,0
2017-05-27T01:21:35.798Z,0
2017-05-27T01:22:51.521Z,0
2017-05-27T01:24:05.674Z,0
2017-05-27T01:25:19.824Z,0
2017-05-27T01:26:33.954Z,0
2017-05-27T01:27:49.652Z,0
2017-05-27T01:29:05.063Z,0
2017-05-27T01:30:17.724Z,0
2017-05-27T01:31:33.177Z,0
2017-05-27T01:32:47.446Z,0
2017-05-27T01:34:00.352Z,0
2017-05-27T01:35:15.815Z,0
2017-05-27T01:36:31.225Z,0
2017-05-27T01:37:45.828Z,0
2017-05-27T01:39:01.267Z,0
2017-05-27T01:40:16.390Z,0
2017-05-27T01:41:30.528Z,0
2017-05-27T01:42:46.175Z,0
2017-05-27T01:44:01.699Z,0
2017-05-27T01:45:17.413Z,0
2017-05-27T01:46:32.794Z,0
2017-05-27T01:47:48.459Z,0
2017-05-27T01:49:03.882Z,0
2017-05-27T01:50:19.329Z,0
2017-05-27T01:51:32.007Z,0
2017-05-27T01:52:47.453Z,0
2017-05-27T01:54:03.083Z,0
2017-05-27T01:55:18.166Z,0
2017-05-27T01:56:33.682Z,0
2017-05-27T01:57:49.148Z,0
2017-05-27T01:59:04.764Z,0
2017-05-27T02:00:20.170Z,0
2017-05-27T02:01:35.776Z,0
2017-05-27T02:02:49.929Z,0
2017-05-27T02:04:04.176Z,0
2017-05-27T02:05:19.559Z,0
2017-05-27T02:06:35.178Z,0
2017-05-27T02:07:49.171Z,0
2017-05-27T02:09:04.873Z,0
2017-05-27T02:10:18.985Z,0
2017-05-27T02:11:34.397Z,0
2017-05-27T02:12:50.082Z,0
2017-05-27T02:14:05.780Z,0
2017-05-27T02:15:21.199Z,0
2017-05-27T02:16:36.703Z,0
2017-05-27T02:17:50.765Z,0
2017-05-27T02:19:06.086Z,0
2017-05-27T02:20:20.215Z,0
2017-05-27T02:21:35.324Z,0
2017-05-27T02:22:50.771Z,0
2017-05-27T02:24:06.382Z,0
2017-05-27T02:25:22.084Z,0
2017-05-27T02:26:36.195Z,0
2017-05-27T02:27:51.226Z,0
2017-05-27T02:29:06.822Z,0
2017-05-27T02:30:22.407Z,0
2017-05-27T02:31:37.859Z,0
2017-05-27T02:32:53.308Z,0
2017-05-27T02:34:09.019Z,0
2017-05-27T02:35:24.451Z,0
2017-05-27T02:36:39.866Z,0
2017-05-27T02:37:54.039Z,0
2017-05-27T02:39:09.721Z,0
2017-05-27T02:40:25.165Z,0
2017-05-27T02:41:40.630Z,0
2017-05-27T02:42:53.540Z,0
2017-05-27T02:44:09.541Z,0
2017-05-27T02:45:24.954Z,0
2017-05-27T02:46:40.389Z,0
2017-05-27T02:47:55.783Z,0
2017-05-27T02:49:11.377Z,0
2017-05-27T02:50:26.795Z,0
2017-05-27T02:51:42.518Z,0
2017-05-27T02:52:56.255Z,5
2017-05-27T02:54:12.359Z,5
2017-05-27T02:55:27.937Z,5
2017-05-27T02:56:40.774Z,5
2017-05-27T02:57:56.191Z,5
2017-05-27T02:59:12.120Z,5
2017-05-27T03:00:27.574Z,5
2017-05-27T03:01:43.045Z,10
2017-05-27T03:02:58.480Z,10
2017-05-27T03:04:14.096Z,10
2017-05-27T03:05:30.100Z,10
2017-05-27T03:06:45.479Z,15
2017-05-27T03:08:00.861Z,15
2017-05-27T03:09:16.566Z,15
2017-05-27T03:10:32.263Z,15
2017-05-27T03:11:47.590Z,20
2017-05-27T03:13:03.027Z,20
2017-05-27T03:14:18.912Z,20
2017-05-27T03:15:31.630Z,20
2017-05-27T03:16:47.037Z,25
2017-05-27T03:18:02.460Z,25
2017-05-27T03:19:18.129Z,25
2017-05-27T03:20:32.258Z,30
2017-05-27T03:21:46.451Z,30
2017-05-27T03:23:01.884Z,30
2017-05-27T03:24:17.299Z,35
2017-05-27T03:25:31.517Z,35
2017-05-27T03:26:47.301Z,35
2017-05-27T03:28:02.818Z,40
2017-05-27T03:29:18.187Z,40
2017-05-27T03:30:33.836Z,45
2017-05-27T03:31:48.035Z,45
2017-05-27T03:33:02.092Z,45
2017-05-27T03:34:17.537Z,50
2017-05-27T03:35:33.273Z,50
2017-05-27T03:36:48.664Z,50
2017-05-27T03:38:03.758Z,55
2017-05-27T03:39:19.194Z,55
2017-05-27T03:40:34.805Z,60
2017-05-27T03:41:50.159Z,60
2017-05-27T03:43:04.291Z,60
2017-05-27T03:44:18.458Z,65
2017-05-27T03:45:34.171Z,65
2017-05-27T03:46:49.591Z,70
2017-05-27T03:48:03.755Z,70
2017-05-27T03:49:19.191Z,70
2017-05-27T03:50:33.527Z,75
2017-05-27T03:51:46.224Z,75
2017-05-27T03:53:01.678Z,75
2017-05-27T03:54:17.125Z,80
2017-05-27T03:55:31.499Z,80
2017-05-27T03:56:46.950Z,85
2017-05-27T03:57:59.613Z,85
2017-05-27T03:59:13.782Z,90
2017-05-27T04:00:29.362Z,90
2017-05-27T04:01:44.969Z,90
2017-05-27T04:03:00.356Z,95
2017-05-27T04:04:15.797Z,95
2017-05-27T04:05:31.265Z,100
2017-05-27T04:06:46.917Z,100
2017-05-27T04:08:02.386Z,100
2017-05-27T04:09:17.831Z,105
2017-05-27T04:10:33.255Z,105
2017-05-27T04:11:47.492Z,105
2017-05-27T04:13:02.968Z,110
2017-05-27T04:14:18.435Z,110
2017-05-27T04:15:32.596Z,115
2017-05-27T04:16:48.200Z,115
2017-05-27T04:18:01.410Z,115
2017-05-27T04:19:14.116Z,120
2017-05-27T04:20:29.527Z,120
2017-05-27T04:21:43.803Z,120
2017-05-27T04:22:57.850Z,120
2017-05-27T04:24:13.309Z,120
2017-05-27T04:25:28.691Z,125
2017-05-27T04:26:44.766Z,125
2017-05-27T04:28:00.217Z,135
2017-05-27T04:29:14.194Z,130
2017-05-27T04:30:29.648Z,130
2017-05-27T04:31:43.811Z,135
2017-05-27T04:32:59.247Z,135
2017-05-27T04:34:13.381Z,140
2017-05-27T04:35:28.803Z,140
2017-05-27T04:36:42.951Z,140
2017-05-27T04:37:57.168Z,145
2017-05-27T04:39:12.720Z,145
2017-05-27T04:40:26.739Z,150
2017-05-27T04:41:40.864Z,150
2017-05-27T04:42:56.535Z,150
2017-05-27T04:44:11.969Z,155
2017-05-27T04:45:27.320Z,155
2017-05-27T04:46:42.698Z,160
2017-05-27T04:47:57.066Z,160
2017-05-27T04:49:12.571Z,160
2017-05-27T04:50:27.962Z,165
2017-05-27T04:51:43.601Z,165
2017-05-27T04:52:59.301Z,165
2017-05-27T04:54:13.412Z,170
2017-05-27T04:55:27.552Z,170
2017-05-27T04:56:41.656Z,170
2017-05-27T04:57:57.253Z,175
2017-05-27T04:59:11.430Z,170
2017-05-27T05:00:25.610Z,170
2017-05-27T05:01:39.577Z,175
2017-05-27T05:02:54.020Z,175
2017-05-27T05:04:08.429Z,175
2017-05-27T05:05:23.870Z,180
2017-05-27T05:06:39.530Z,180
2017-05-27T05:07:55.261Z,180
2017-05-27T05:09:10.724Z,185
2017-05-27T05:10:26.186Z,185
2017-05-27T05:11:40.513Z,185
2017-05-27T05:13:27.072Z,190
2017-05-27T05:14:42.522Z,195
2017-05-27T05:15:57.926Z,190
2017-05-27T05:17:13.380Z,195
2017-05-27T05:18:29.065Z,195
2017-05-27T05:19:44.526Z,195
2017-05-27T05:21:00.010Z,200
2017-05-27T05:22:14.126Z,200
2017-05-27T05:23:28.438Z,205
2017-05-27T05:24:42.737Z,205
2017-05-27T05:25:58.192Z,205
2017-05-27T05:27:13.663Z,205
2017-05-27T05:28:29.357Z,205
2017-05-27T05:29:44.827Z,205
2017-05-27T05:30:58.866Z,205
2017-05-27T05:32:14.245Z,205
2017-05-27T05:33:28.569Z,210
2017-05-27T05:34:43.995Z,210
2017-05-27T05:35:59.431Z,210
2017-05-27T05:37:14.914Z,220
2017-05-27T05:38:30.799Z,215
2017-05-27T05:39:46.244Z,215
2017-05-27T05:41:01.701Z,215
2017-05-27T05:42:17.215Z,220
2017-05-27T05:43:30.426Z,220
2017-05-27T05:44:45.886Z,220
2017-05-27T05:46:01.328Z,220
2017-05-27T05:47:16.722Z,225
2017-05-27T05:48:32.397Z,225
2017-05-27T05:49:47.806Z,225
2017-05-27T05:51:03.167Z,225
2017-05-27T05:52:18.650Z,225
2017-05-27T05:53:34.331Z,230
2017-05-27T05:54:49.787Z,230
2017-05-27T05:56:05.278Z,230
2017-05-27T05:57:19.270Z,230
2017-05-27T05:58:34.857Z,230
2017-05-27T05:59:48.686Z,230
2017-05-27T06:01:04.360Z,230
2017-05-27T06:02:19.819Z,230
2017-05-27T06:03:35.477Z,230
2017-05-27T06:04:51.190Z,235
2017-05-27T06:06:06.586Z,235
2017-05-27T06:07:22.097Z,235
2017-05-27T06:08:37.811Z,235
2017-05-27T06:09:53.257Z,235
2017-05-27T06:11:08.674Z,240
2017-05-27T06:12:24.137Z,235
2017-05-27T06:13:39.812Z,235
2017-05-27T06:14:54.444Z,235
2017-05-27T06:16:10.207Z,235
2017-05-27T06:17:25.699Z,235
2017-05-27T06:18:41.424Z,240
2017-05-27T06:19:56.846Z,240
2017-05-27T06:21:12.635Z,240
2017-05-27T06:22:26.731Z,240
2017-05-27T06:23:42.423Z,240
2017-05-27T06:24:56.457Z,240
2017-05-27T06:26:11.889Z,240
2017-05-27T06:27:26.262Z,240
2017-05-27T06:28:41.884Z,240
2017-05-27T06:29:55.994Z,240
2017-05-27T06:31:11.092Z,245
2017-05-27T06:32:25.153Z,245
2017-05-27T06:33:39.442Z,245
2017-05-27T06:35:26.012Z,245
2017-05-27T06:36:41.430Z,245
2017-05-27T06:37:55.660Z,245
2017-05-27T06:39:11.119Z,245
2017-05-27T06:40:27.059Z,245
2017-05-27T06:41:42.547Z,245
2017-05-27T06:42:58.011Z,245
2017-05-27T06:44:13.396Z,245
2017-05-27T06:45:27.787Z,245
2017-05-27T06:46:41.988Z,250
2017-05-27T06:47:57.514Z,250
2017-05-27T06:49:12.993Z,250
2017-05-27T06:50:28.688Z,250
2017-05-27T06:51:44.175Z,250
2017-05-27T06:52:59.597Z,250
2017-05-27T06:54:15.086Z,255
2017-05-27T06:55:30.701Z,255
2017-05-27T06:56:46.134Z,260
2017-05-27T06:58:01.237Z,260
2017-05-27T06:59:15.314Z,265
2017-05-27T07:00:30.993Z,265
2017-05-27T07:01:46.463Z,265
2017-05-27T07:03:01.899Z,265
2017-05-27T07:04:17.338Z,270
2017-05-27T07:05:33.046Z,270
2017-05-27T07:06:48.519Z,270
2017-05-27T07:08:03.980Z,270
2017-05-27T07:09:19.757Z,270
2017-05-27T07:10:35.392Z,270
2017-05-27T07:11:50.882Z,275
2017-05-27T07:13:06.390Z,280
2017-05-27T07:14:21.818Z,280
2017-05-27T07:15:36.230Z,280
2017-05-27T07:16:51.691Z,280
2017-05-27T07:18:06.103Z,280
2017-05-27T07:19:21.528Z,280
2017-05-27T07:20:35.807Z,285
2017-05-27T07:21:51.252Z,280
2017-05-27T07:23:06.730Z,280
2017-05-27T07:24:22.222Z,285
2017-05-27T07:25:35.138Z,285
2017-05-27T07:26:49.554Z,285
2017-05-27T07:28:05.082Z,290
2017-05-27T07:29:20.579Z,290
2017-05-27T07:30:36.255Z,290
2017-05-27T07:31:51.723Z,290
2017-05-27T07:33:07.144Z,295
2017-05-27T07:34:22.572Z,295
2017-05-27T07:35:37.036Z,295
2017-05-27T07:36:52.470Z,295
2017-05-27T07:38:06.577Z,300
2017-05-27T07:39:19.222Z,300
2017-05-27T07:40:34.957Z,305
2017-05-27T07:41:49.087Z,305
2017-05-27T07:43:04.671Z,310
2017-05-27T07:44:18.856Z,315
2017-05-27T07:45:31.871Z,315
2017-05-27T07:46:47.240Z,315
2017-05-27T07:48:02.701Z,320
2017-05-27T07:49:16.851Z,320
2017-05-27T07:50:32.472Z,325
2017-05-27T07:51:47.949Z,325
2017-05-27T07:53:03.580Z,325
2017-05-27T07:54:17.773Z,330
2017-05-27T07:55:33.496Z,335
2017-05-27T07:56:47.620Z,335
2017-05-27T07:58:03.117Z,340
2017-05-27T07:59:18.642Z,345
2017-05-27T08:00:34.249Z,345
2017-05-27T08:01:49.719Z,350
2017-05-27T08:03:05.242Z,355
2017-05-27T08:04:20.346Z,355
2017-05-27T08:05:35.971Z,360
2017-05-27T08:06:51.424Z,360
2017-05-27T08:08:06.892Z,365
2017-05-27T08:09:20.692Z,370
2017-05-27T08:10:36.700Z,370
2017-05-27T08:11:52.661Z,370
2017-05-27T08:13:06.696Z,375
2017-05-27T08:14:22.352Z,375
2017-05-27T08:15:38.110Z,380
2017-05-27T08:16:53.565Z,380
2017-05-27T08:18:07.592Z,380
2017-05-27T08:19:23.009Z,380
2017-05-27T08:20:38.687Z,380
2017-05-27T08:21:52.873Z,385
2017-05-27T08:23:08.386Z,385
2017-05-27T08:24:23.844Z,380
2017-05-27T08:25:39.530Z,380
2017-05-27T08:26:54.948Z,385
2017-05-27T08:28:10.633Z,390
2017-05-27T08:29:26.036Z,395
2017-05-27T08:30:41.722Z,400
2017-05-27T08:31:55.896Z,410
2017-05-27T08:33:11.335Z,425
2017-05-27T08:34:26.743Z,480
2017-05-27T08:35:42.804Z,1590
2017-05-27T08:36:58.480Z,3005
2017-05-27T08:38:13.885Z,3685
2017-05-27T08:39:29.375Z,4110
2017-05-27T08:40:45.042Z,4125
2017-05-27T08:42:00.558Z,3870
2017-05-27T08:43:16.015Z,3570
2017-05-27T08:44:31.418Z,3320
2017-05-27T08:45:45.839Z,3210
2017-05-27T08:47:00.155Z,3295
2017-05-27T08:48:15.592Z,3380
2017-05-27T08:49:31.035Z,3330
2017-05-27T08:50:46.728Z,3360
2017-05-27T08:52:02.166Z,3460
2017-05-27T08:53:16.227Z,3515
2017-05-27T08:54:31.673Z,3505
2017-05-27T08:55:47.454Z,3540
2017-05-27T08:57:02.920Z,3555
2017-05-27T08:58:18.484Z,3480
2017-05-27T08:59:33.998Z,3345
2017-05-27T09:00:49.735Z,3110
2017-05-27T09:02:05.222Z,3075
2017-05-27T09:03:20.746Z,3150
2017-05-27T09:04:36.210Z,3165
2017-05-27T09:05:51.815Z,3385
2017-05-27T09:07:07.306Z,3695
2017-05-27T09:08:22.814Z,3940
2017-05-27T09:09:38.293Z,3955
2017-05-27T09:10:52.776Z,3920
2017-05-27T09:12:08.388Z,3775
2017-05-27T09:13:23.917Z,3685
2017-05-27T09:14:39.391Z,3760
2017-05-27T09:15:55.174Z,3935
2017-05-27T09:17:09.236Z,4190
2017-05-27T09:18:24.684Z,4435
2017-05-27T09:19:40.707Z,4595
2017-05-27T09:20:56.565Z,4655
2017-05-27T09:22:12.012Z,4685
2017-05-27T09:23:27.502Z,4485
2017-05-27T09:24:42.958Z,4330
2017-05-27T09:25:57.426Z,4285
2017-05-27T09:27:12.861Z,4060
2017-05-27T09:28:28.302Z,3880
2017-05-27T09:29:43.798Z,3865
2017-05-27T09:30:59.514Z,3925
2017-05-27T09:32:15.000Z,4025
2017-05-27T09:33:29.192Z,4140
2017-05-27T09:34:44.701Z,3925
2017-05-27T09:36:00.441Z,3485
2017-05-27T09:37:15.855Z,3155
2017-05-27T09:38:31.420Z,3130
2017-05-27T09:39:47.225Z,3395
2017-05-27T09:41:01.591Z,3745
2017-05-27T09:42:17.063Z,3990
2017-05-27T09:43:31.305Z,4230
2017-05-27T09:44:46.807Z,4540
2017-05-27T09:46:02.559Z,4840
2017-05-27T09:47:16.691Z,5005
2017-05-27T09:48:32.163Z,4795
2017-05-27T09:49:47.787Z,4390
2017-05-27T09:51:01.903Z,4120
2017-05-27T09:52:17.584Z,4050
2017-05-27T09:53:33.240Z,4145
2017-05-27T09:54:48.723Z,4110
2017-05-27T09:56:04.185Z,4050
2017-05-27T09:57:19.915Z,3940
2017-05-27T09:58:35.008Z,4075
2017-05-27T09:59:50.613Z,4235
2017-05-27T10:01:06.164Z,4325
2017-05-27T10:02:21.834Z,4380
2017-05-27T10:03:35.799Z,4400
2017-05-27T10:04:51.270Z,4330
2017-05-27T10:06:05.493Z,4210
2017-05-27T10:07:21.219Z,4050
2017-05-27T10:08:35.035Z,3940
2017-05-27T10:09:50.481Z,3935
2017-05-27T10:11:05.929Z,4125
2017-05-27T10:12:19.126Z,4525
2017-05-27T10:13:31.971Z,4925
2017-05-27T10:14:47.457Z,5010
2017-05-27T10:16:02.906Z,4805
2017-05-27T10:17:17.366Z,4460
2017-05-27T10:18:32.836Z,4395
2017-05-27T10:19:47.069Z,4525
2017-05-27T10:21:01.222Z,4900
2017-05-27T10:22:16.900Z,5350
2017-05-27T10:23:32.230Z,5545
2017-05-27T10:24:46.395Z,5650
2017-05-27T10:26:01.840Z,5680
2017-05-27T10:27:17.647Z,5540
2017-05-27T10:28:33.113Z,5570
2017-05-27T10:29:48.583Z,5485
2017-05-27T10:31:04.095Z,5415
2017-05-27T10:32:19.827Z,5335
2017-05-27T10:33:35.293Z,5490
2017-05-27T10:34:50.753Z,5690
2017-05-27T10:36:03.759Z,5660
2017-05-27T10:37:19.207Z,5405
2017-05-27T10:38:34.871Z,5095
2017-05-27T10:39:50.442Z,4725
2017-05-27T10:41:04.628Z,4575
2017-05-27T10:42:20.084Z,4725
2017-05-27T10:43:35.764Z,5035
2017-05-27T10:44:51.245Z,5820
2017-05-27T10:46:06.737Z,6195
2017-05-27T10:47:22.199Z,6125
2017-05-27T10:48:35.309Z,5910
2017-05-27T10:49:50.747Z,5650
2017-05-27T10:51:06.219Z,5430
2017-05-27T10:52:21.670Z,5320
2017-05-27T10:53:37.432Z,5355
2017-05-27T10:54:52.883Z,5545
2017-05-27T10:56:08.568Z,5725
2017-05-27T10:57:24.102Z,5670
2017-05-27T10:58:39.757Z,5595
2017-05-27T10:59:53.990Z,5660
2017-05-27T11:01:09.527Z,5695
2017-05-27T11:02:25.005Z,5830
2017-05-27T11:03:40.694Z,5870
2017-05-27T11:04:54.926Z,5635
2017-05-27T11:06:10.744Z,5135
2017-05-27T11:07:26.239Z,4925
2017-05-27T11:08:40.649Z,4795
2017-05-27T11:09:56.165Z,5025
2017-05-27T11:11:11.683Z,5315
2017-05-27T11:12:27.193Z,5485
2017-05-27T11:13:43.058Z,5410
2017-05-27T11:14:57.088Z,5330
2017-05-27T11:16:12.565Z,5300
2017-05-27T11:17:28.071Z,5435
2017-05-27T11:18:43.711Z,5665
2017-05-27T11:19:59.253Z,5765
2017-05-27T11:21:14.768Z,5720
2017-05-27T11:22:30.344Z,5645
2017-05-27T11:23:45.656Z,5615
2017-05-27T11:24:59.688Z,5570
2017-05-27T11:26:15.440Z,5365
2017-05-27T11:27:30.889Z,5040
2017-05-27T11:28:46.625Z,4780
2017-05-27T11:30:02.150Z,4650
2017-05-27T11:31:16.197Z,4930
2017-05-27T11:32:31.625Z,5365
2017-05-27T11:33:47.403Z,5535
2017-05-27T11:35:01.178Z,5530
2017-05-27T11:36:14.115Z,5410
2017-05-27T11:37:29.892Z,5275
2017-05-27T11:38:44.316Z,5115
2017-05-27T11:39:59.800Z,5155
2017-05-27T11:41:13.986Z,5085
2017-05-27T11:42:29.491Z,4935
2017-05-27T11:43:45.183Z,4825
2017-05-27T11:45:00.709Z,4810
2017-05-27T11:46:16.211Z,4825
2017-05-27T11:47:31.689Z,4945
2017-05-27T11:48:47.544Z,4935
2017-05-27T11:50:01.633Z,4825
2017-05-27T11:51:17.229Z,4810
2017-05-27T11:52:32.768Z,4880
2017-05-27T11:53:48.428Z,4935
2017-05-27T11:55:03.966Z,4925
2017-05-27T11:56:19.513Z,4910
2017-05-27T11:57:35.047Z,4865
2017-05-27T11:58:50.761Z,4950
2017-05-27T12:00:06.260Z,5245
2017-05-27T12:01:21.737Z,5415
2017-05-27T12:02:37.197Z,5460
2017-05-27T12:03:52.917Z,5310
2017-05-27T12:05:07.091Z,5065
2017-05-27T12:06:22.569Z,4735
2017-05-27T12:07:37.982Z,4535
2017-05-27T12:08:51.081Z,4655
2017-05-27T12:10:06.589Z,4875
2017-05-27T12:11:22.048Z,5105
2017-05-27T12:12:37.527Z,5105
2017-05-27T12:13:53.285Z,5075
2017-05-27T12:15:08.761Z,4910
2017-05-27T12:16:24.237Z,4695
2017-05-27T12:17:39.738Z,4815
2017-05-27T12:18:55.505Z,5255
2017-05-27T12:20:11.013Z,5655
2017-05-27T12:21:26.510Z,5790
2017-05-27T12:22:41.977Z,5650
2017-05-27T12:23:57.683Z,5325
2017-05-27T12:25:13.144Z,4995
2017-05-27T12:26:28.641Z,4845
2017-05-27T12:27:44.126Z,4840
2017-05-27T12:28:59.849Z,5055
2017-05-27T12:30:15.560Z,5120
2017-05-27T12:31:31.080Z,5180
2017-05-27T12:32:46.572Z,5040
2017-05-27T12:34:02.337Z,4755
2017-05-27T12:35:16.494Z,4595
2017-05-27T12:36:32.060Z,4250
2017-05-27T12:37:46.187Z,4010
2017-05-27T12:39:02.106Z,3795
2017-05-27T12:40:17.197Z,3820
2017-05-27T12:41:32.647Z,4050
2017-05-27T12:42:48.114Z,4555
2017-05-27T12:44:02.530Z,4870
2017-05-27T12:45:16.586Z,4840
2017-05-27T12:46:32.071Z,4525
2017-05-27T12:47:46.304Z,4245
2017-05-27T12:49:01.998Z,4395
2017-05-27T12:50:15.789Z,4745
2017-05-27T12:51:31.437Z,4940
2017-05-27T12:52:46.903Z,4835
2017-05-27T12:54:01.002Z,4570
2017-05-27T12:55:16.861Z,4360
2017-05-27T12:56:32.392Z,4310
2017-05-27T12:57:47.822Z,4340
2017-05-27T12:59:03.389Z,4395
2017-05-27T13:00:17.912Z,4460
2017-05-27T13:01:33.425Z,4510
2017-05-27T13:02:48.995Z,4585
2017-05-27T13:04:04.430Z,4660
2017-05-27T13:05:20.222Z,4645
2017-05-27T13:06:34.299Z,4650
2017-05-27T13:07:49.818Z,4635
2017-05-27T13:09:05.256Z,4700
2017-05-27T13:10:20.980Z,4745
2017-05-27T13:11:35.034Z,4800
2017-05-27T13:12:49.201Z,4760
2017-05-27T13:14:04.689Z,4580
2017-05-27T13:15:20.028Z,4355
2017-05-27T13:16:35.508Z,4210
2017-05-27T13:17:51.071Z,4110
2017-05-27T13:19:06.583Z,4045
2017-05-27T13:20:19.866Z,3960
2017-05-27T13:21:35.436Z,3975
2017-05-27T13:22:48.173Z,4035
2017-05-27T13:24:03.997Z,4230
2017-05-27T13:25:18.047Z,4360
2017-05-27T13:26:33.572Z,4340
2017-05-27T13:27:49.073Z,4145
2017-05-27T13:29:04.497Z,3855
2017-05-27T13:30:20.332Z,4000
2017-05-27T13:31:34.487Z,4315
2017-05-27T13:32:48.642Z,4440
2017-05-27T13:34:04.054Z,4335
2017-05-27T13:35:19.802Z,3730
2017-05-27T13:36:35.262Z,3410
2017-05-27T13:37:49.442Z,3595
2017-05-27T13:39:03.189Z,3925
2017-05-27T13:40:17.614Z,4035
2017-05-27T13:41:33.369Z,3870
2017-05-27T13:42:47.559Z,3660
2017-05-27T13:44:03.040Z,3380
2017-05-27T13:45:18.681Z,3305
2017-05-27T13:46:34.163Z,3495
2017-05-27T13:47:49.953Z,3580
2017-05-27T13:49:05.397Z,3320
2017-05-27T13:50:21.073Z,3045
2017-05-27T13:51:36.477Z,2875
2017-05-27T13:52:52.067Z,2850
2017-05-27T13:54:07.575Z,3045
2017-05-27T13:55:23.305Z,3475
2017-05-27T13:56:38.819Z,3775
2017-05-27T13:58:24.758Z,3740
2017-05-27T13:59:40.226Z,3575
2017-05-27T14:00:55.951Z,3300
2017-05-27T14:02:11.435Z,3080
2017-05-27T14:03:26.931Z,2915
2017-05-27T14:04:41.058Z,2990
2017-05-27T14:05:56.706Z,3410
2017-05-27T14:07:12.229Z,3650
2017-05-27T14:08:27.719Z,3515
2017-05-27T14:09:43.207Z,3385
2017-05-27T14:10:58.980Z,3555
2017-05-27T14:12:14.463Z,3860
2017-05-27T14:13:29.940Z,3995
2017-05-27T14:14:45.427Z,3745
2017-05-27T14:15:59.638Z,3225
2017-05-27T14:17:15.337Z,2675
2017-05-27T14:18:30.820Z,2435
2017-05-27T14:19:46.292Z,2705
2017-05-27T14:21:01.937Z,3135
2017-05-27T14:22:17.432Z,3550
2017-05-27T14:23:32.968Z,3620
2017-05-27T14:24:48.717Z,3495
2017-05-27T14:26:04.422Z,3235
2017-05-27T14:27:19.884Z,3175
2017-05-27T14:28:35.420Z,2950
2017-05-27T14:29:49.771Z,2590
2017-05-27T14:31:05.486Z,2280
2017-05-27T14:32:21.193Z,2130
2017-05-27T14:33:36.660Z,2430
2017-05-27T14:34:52.325Z,3020
2017-05-27T14:36:08.059Z,3385
2017-05-27T14:37:23.558Z,3135
2017-05-27T14:38:36.258Z,2610
2017-05-27T14:39:50.335Z,2305
2017-05-27T14:41:05.965Z,2300
2017-05-27T14:42:21.413Z,2490
2017-05-27T14:43:35.544Z,2585
2017-05-27T14:44:49.699Z,2620
2017-05-27T14:46:04.015Z,2635
2017-05-27T14:47:18.224Z,2680
2017-05-27T14:48:33.724Z,2840
2017-05-27T14:49:49.230Z,2985
2017-05-27T14:51:05.435Z,3055
2017-05-27T14:52:20.875Z,2905
2017-05-27T14:53:36.280Z,2530
2017-05-27T14:54:51.761Z,2170
2017-05-27T14:56:38.314Z,2340
2017-05-27T14:57:52.498Z,2750
2017-05-27T14:59:07.962Z,3000
2017-05-27T15:00:22.040Z,2785
2017-05-27T15:01:37.670Z,2510
2017-05-27T15:02:53.175Z,2560
2017-05-27T15:04:08.635Z,2750
2017-05-27T15:05:24.100Z,2740
2017-05-27T15:06:39.818Z,1570
2017-05-27T15:07:55.301Z,555
2017-05-27T15:09:08.137Z,500
2017-05-27T15:10:23.597Z,470
2017-05-27T15:11:37.924Z,455
2017-05-27T15:12:52.081Z,440
2017-05-27T15:14:07.565Z,420
2017-05-27T15:15:23.066Z,405
2017-05-27T15:16:38.789Z,395
2017-05-27T15:17:54.270Z,385
2017-05-27T15:19:08.468Z,380
2017-05-27T15:20:23.553Z,375
2017-05-27T15:21:39.265Z,370
2017-05-27T15:22:54.777Z,365
2017-05-27T15:24:10.249Z,360
2017-05-27T15:25:25.713Z,365
2017-05-27T15:26:40.060Z,355
2017-05-27T15:27:55.793Z,350
2017-05-27T15:29:09.973Z,350
2017-05-27T15:30:25.406Z,345
2017-05-27T15:31:41.121Z,340
2017-05-27T15:32:56.582Z,340
2017-05-27T15:34:12.073Z,335
2017-05-27T15:35:27.540Z,335
2017-05-27T15:36:43.276Z,330
2017-05-27T15:37:57.426Z,330
2017-05-27T15:39:11.572Z,330
2017-05-27T15:40:27.264Z,325
2017-05-27T15:41:42.917Z,325
2017-05-27T15:42:58.429Z,320
2017-05-27T15:44:13.589Z,320
2017-05-27T15:45:29.064Z,320
2017-05-27T15:46:44.737Z,315
2017-05-27T15:48:00.227Z,315
2017-05-27T15:49:15.931Z,315
2017-05-27T15:50:31.385Z,310
2017-05-27T15:51:44.548Z,310
2017-05-27T15:53:00.018Z,305
2017-05-27T15:54:15.675Z,305
2017-05-27T15:55:29.884Z,305
2017-05-27T15:56:45.499Z,300
2017-05-27T15:58:01.573Z,295
2017-05-27T15:59:17.053Z,290
2017-05-27T16:00:32.602Z,285
2017-05-27T16:01:48.544Z,280
2017-05-27T16:03:03.725Z,275
2017-05-27T16:04:19.353Z,275
2017-05-27T16:05:34.836Z,275
2017-05-27T16:06:50.542Z,270
2017-05-27T16:08:04.702Z,270
2017-05-27T16:09:20.178Z,265
2017-05-27T16:10:35.683Z,265
2017-05-27T16:11:50.115Z,265
2017-05-27T16:13:06.072Z,260
2017-05-27T16:14:20.237Z,260
2017-05-27T16:15:34.263Z,260
2017-05-27T16:16:48.033Z,255
2017-05-27T16:18:03.720Z,255
2017-05-27T16:19:19.202Z,250
2017-05-27T16:20:34.641Z,250
2017-05-27T16:21:48.825Z,245
2017-05-27T16:23:04.578Z,245
2017-05-27T16:24:20.092Z,240
2017-05-27T16:25:35.596Z,240
2017-05-27T16:26:51.089Z,235
2017-05-27T16:28:06.442Z,230
2017-05-27T16:29:21.904Z,225
2017-05-27T16:30:37.429Z,220
2017-05-27T16:31:52.914Z,215
2017-05-27T16:33:08.639Z,210
2017-05-27T16:34:24.085Z,210
2017-05-27T16:35:39.483Z,205
2017-05-27T16:36:53.723Z,205
2017-05-27T16:38:09.500Z,200
2017-05-27T16:39:23.709Z,200
2017-05-27T16:40:39.129Z,200
2017-05-27T16:41:54.636Z,200
2017-05-27T16:43:10.367Z,195
2017-05-27T16:44:25.895Z,195
2017-05-27T16:45:41.345Z,195
2017-05-27T16:46:55.573Z,195
2017-05-27T16:48:11.301Z,190
2017-05-27T16:49:26.792Z,190
2017-05-27T16:50:41.971Z,190
2017-05-27T16:51:57.426Z,190
2017-05-27T16:53:13.103Z,185
2017-05-27T16:54:28.633Z,185
2017-05-27T16:55:44.301Z,185
2017-05-27T16:56:59.788Z,185
2017-05-27T16:58:15.471Z,180
2017-05-27T16:59:30.941Z,180
2017-05-27T17:00:46.456Z,180
2017-05-27T17:02:01.942Z,180
2017-05-27T17:03:17.635Z,180
2017-05-27T17:04:33.362Z,180
2017-05-27T17:05:48.828Z,180
2017-05-27T17:07:01.528Z,175
2017-05-27T17:08:15.786Z,175
2017-05-27T17:09:31.287Z,175
2017-05-27T17:10:47.074Z,170
2017-05-27T17:12:01.214Z,170
2017-05-27T17:13:17.093Z,170
2017-05-27T17:14:31.327Z,170
2017-05-27T17:15:45.502Z,165
2017-05-27T17:17:00.943Z,165
2017-05-27T17:18:15.329Z,165